Duparquet, Canada
Current Conditions -  °F | °C
As of 9:00 AM on Friday 31 Oct 2014 (Local Time) from CYUY Reporting Station
Broken Clouds Broken Clouds  
Wind Chill: 19°   Ceiling: 3500
Heat Index: 27°   Visibility: 15mi
Dew Point: 25°   Wind: 7mph
Humidity: 93%   Direction: 30°NNE
Pressure: 30.15"   Gusts: NA
Location:  48.52°N, 79.22°W
Report Text: CYUY 311300Z 03006KT 15SM FEW004 FEW015 BKN035 BKN210 M03/M04 A3015 RMK CF1SC2SC3CI2 CF TR SLP226
Loading
Personal Weather Stations






























Interactive Weather Map
Tropical Storm Tracking
New forecast layout! Learn more

10-Day Weather Forecast

Advertisements
Track Severe Weather on mobile